Time;durP1;ratioP1;P1;durP2;ratioP2;P2;SDS_P1;SDS_P2;PMS_P1;PMS_P2;Temp;Humidity;BMP_temperature;BMP_pressure;BME280_temperature;BME280_humidity;BME280_pressure;Samples;Min_cycle;Max_cycle;Signal;HPM_P1;HPM_P2
2022/01/15 00:00:22;;;;;;;4.35;0.60;;;0.50;99.90;;;;;;5035727;28;20408;-84
2022/01/15 00:02:49;;;;;;;3.65;0.50;;;0.50;99.90;;;;;;5035949;28;20762;-83
2022/01/15 00:05:17;;;;;;;6.20;1.20;;;0.50;99.90;;;;;;5039507;28;20410;-85
2022/01/15 00:07:47;;;;;;;5.53;0.90;;;0.60;99.90;;;;;;5021754;28;21025;-85
2022/01/15 00:10:20;;;;;;;4.55;0.90;;;0.60;99.90;;;;;;5046440;28;20419;-84
2022/01/15 00:12:48;;;;;;;3.35;0.70;;;0.60;99.90;;;;;;5037797;28;20388;-84
2022/01/15 00:15:22;;;;;;;6.07;0.90;;;0.60;99.90;;;;;;5048625;28;20437;-85
2022/01/15 00:17:59;;;;;;;6.53;0.73;;;0.60;99.90;;;;;;5035312;28;20400;-85
2022/01/15 00:20:29;;;;;;;3.28;0.70;;;0.60;99.90;;;;;;5040944;28;20392;-85
2022/01/15 00:22:59;;;;;;;4.78;0.70;;;0.60;99.90;;;;;;5018749;28;20866;-85
2022/01/15 00:25:29;;;;;;;5.68;0.85;;;0.60;99.90;;;;;;5053049;28;20466;-83
2022/01/15 00:27:58;;;;;;;3.80;0.77;;;0.60;99.90;;;;;;5018679;28;20896;-84
2022/01/15 00:30:26;;;;;;;5.97;0.88;;;0.60;99.90;;;;;;5018566;28;20399;-87
2022/01/15 00:32:54;;;;;;;5.80;1.00;;;0.60;99.90;;;;;;5034858;28;20440;-86
2022/01/15 00:35:24;;;;;;;4.82;0.82;;;0.70;99.90;;;;;;5038755;28;20435;-85
2022/01/15 00:37:52;;;;;;;4.70;0.80;;;0.70;99.90;;;;;;5054553;28;20386;-84
2022/01/15 00:40:20;;;;;;;6.55;0.70;;;0.70;99.90;;;;;;5072546;28;20390;-84
2022/01/15 00:42:48;;;;;;;4.28;0.68;;;0.70;99.90;;;;;;5052582;28;20880;-86
2022/01/15 00:45:20;;;;;;;7.22;0.95;;;0.70;99.90;;;;;;5034951;28;20438;-83
2022/01/15 00:47:52;;;;;;;6.80;0.90;;;0.70;99.90;;;;;;5031145;28;20443;-85
2022/01/15 00:50:20;;;;;;;5.40;0.95;;;0.70;99.90;;;;;;5031239;28;20393;-84
2022/01/15 00:52:48;;;;;;;6.63;0.88;;;0.70;99.90;;;;;;5032634;28;20443;-85
2022/01/15 00:55:17;;;;;;;7.20;0.90;;;0.70;99.90;;;;;;5032660;28;20397;-84
2022/01/15 00:57:46;;;;;;;5.20;1.10;;;0.70;99.90;;;;;;5040864;28;20852;-86
2022/01/15 01:00:18;;;;;;;4.65;0.82;;;0.70;99.90;;;;;;5048621;28;20533;-86
2022/01/15 01:02:46;;;;;;;8.43;1.00;;;0.70;99.90;;;;;;5030542;28;20397;-86
2022/01/15 01:05:14;;;;;;;5.90;0.98;;;0.70;99.90;;;;;;5030699;28;20405;-86
2022/01/15 01:07:42;;;;;;;9.25;1.10;;;0.70;99.90;;;;;;5045371;28;20743;-86
2022/01/15 01:23:29;;;;;;;4.75;0.90;;;0.70;99.90;;;;;;5046779;28;20425;-85
2022/01/15 01:26:11;;;;;;;6.70;0.70;;;0.80;99.90;;;;;;5030568;28;20435;-86
2022/01/15 01:28:44;;;;;;;6.43;0.80;;;0.70;99.90;;;;;;5025807;28;20754;-86
2022/01/15 01:31:18;;;;;;;5.25;1.35;;;0.70;99.90;;;;;;5033739;28;20412;-86
2022/01/15 01:33:50;;;;;;;4.97;1.00;;;0.70;99.90;;;;;;5030395;28;20818;-86
2022/01/15 01:36:39;;;;;;;6.35;0.70;;;0.70;99.90;;;;;;5030653;28;20459;-86
2022/01/15 01:39:13;;;;;;;6.65;1.35;;;0.70;99.90;;;;;;5026744;28;20401;-85
2022/01/15 01:41:48;;;;;;;5.35;1.15;;;0.70;99.90;;;;;;5046878;28;20405;-86
2022/01/15 01:44:18;;;;;;;6.13;1.17;;;0.70;99.90;;;;;;5046703;28;20410;-86
2022/01/15 01:46:52;;;;;;;6.50;1.08;;;0.70;99.90;;;;;;5048981;28;20404;-87
2022/01/15 01:49:19;;;;;;;6.75;0.90;;;0.70;99.90;;;;;;5054339;28;20906;-86
2022/01/15 01:51:48;;;;;;;5.47;0.70;;;0.70;99.90;;;;;;5054507;28;20816;-86
2022/01/15 01:54:18;;;;;;;3.22;0.80;;;0.70;99.90;;;;;;5072109;28;20397;-86
2022/01/15 01:56:47;;;;;;;5.15;1.10;;;0.70;99.90;;;;;;5028546;28;20534;-88
2022/01/15 01:59:16;;;;;;;5.57;1.00;;;0.70;99.90;;;;;;5018278;28;20481;-86
2022/01/15 02:01:44;;;;;;;7.80;1.20;;;0.70;99.90;;;;;;5017664;28;20404;-86
2022/01/15 02:04:14;;;;;;;6.60;1.13;;;0.70;99.90;;;;;;5034390;28;20411;-86
2022/01/15 02:06:41;;;;;;;3.80;0.65;;;0.70;99.90;;;;;;5028077;28;20436;-86
2022/01/15 02:09:09;;;;;;;2.75;0.70;;;0.70;99.90;;;;;;5034106;28;20404;-86
2022/01/15 02:11:39;;;;;;;5.53;1.00;;;0.70;99.90;;;;;;5033950;28;20391;-88
2022/01/15 02:14:06;;;;;;;3.30;0.60;;;0.70;99.90;;;;;;5033962;28;20396;-85
2022/01/15 02:16:34;;;;;;;4.75;0.65;;;0.80;99.90;;;;;;5034059;28;20392;-86
2022/01/15 02:19:01;;;;;;;4.80;1.00;;;0.80;99.90;;;;;;5050462;28;20411;-86
2022/01/15 02:24:14;;;;;;;6.15;0.90;;;0.70;99.90;;;;;;5050250;28;20855;-85
2022/01/15 02:26:42;;;;;;;4.55;0.80;;;0.70;99.90;;;;;;5050133;28;20442;-85
2022/01/15 02:29:09;;;;;;;5.70;0.80;;;0.80;99.90;;;;;;5050195;28;20415;-87
2022/01/15 02:31:37;;;;;;;5.37;1.10;;;0.80;99.90;;;;;;5052385;28;20387;-85
2022/01/15 02:34:05;;;;;;;4.85;1.00;;;0.70;99.90;;;;;;5054032;28;20403;-86
2022/01/15 02:36:35;;;;;;;6.57;1.00;;;0.70;99.90;;;;;;5054064;28;20400;-85
2022/01/15 02:39:06;;;;;;;8.25;1.13;;;0.70;99.90;;;;;;5054106;28;20419;-86
2022/01/15 02:41:38;;;;;;;4.70;0.77;;;0.70;99.90;;;;;;5054116;28;20498;-86
2022/01/15 02:44:15;;;;;;;5.13;0.80;;;0.70;99.90;;;;;;5056544;28;20410;-85
2022/01/15 02:49:18;;;;;;;7.43;0.90;;;0.70;99.90;;;;;;5056239;28;20411;-87
2022/01/15 02:51:45;;;;;;;5.97;0.85;;;0.70;99.90;;;;;;5056946;28;20406;-87
2022/01/15 02:54:13;;;;;;;6.70;0.90;;;0.70;99.90;;;;;;5057077;28;20398;-87
2022/01/15 02:56:42;;;;;;;5.47;0.90;;;0.70;99.90;;;;;;5039894;28;20439;-85
2022/01/15 02:59:17;;;;;;;5.10;0.90;;;0.70;99.90;;;;;;5073688;28;20390;-85
2022/01/15 03:01:46;;;;;;;6.75;1.08;;;0.60;99.90;;;;;;5054907;28;20445;-86
2022/01/15 03:04:13;;;;;;;6.53;1.05;;;0.70;99.90;;;;;;5038167;28;20415;-86
2022/01/15 03:06:40;;;;;;;5.72;1.13;;;0.70;99.90;;;;;;5056687;28;20456;-85
2022/01/15 03:09:08;;;;;;;6.23;1.20;;;0.70;99.90;;;;;;5040099;28;20422;-86
2022/01/15 03:11:36;;;;;;;6.90;1.00;;;0.70;99.90;;;;;;5057005;28;20388;-86
2022/01/15 03:14:03;;;;;;;5.95;0.95;;;0.70;99.90;;;;;;5056928;28;20379;-86
2022/01/15 03:16:31;;;;;;;7.60;1.10;;;0.70;99.90;;;;;;5040487;28;20390;-86
2022/01/15 03:18:58;;;;;;;5.03;0.80;;;0.70;99.90;;;;;;5074429;28;20382;-85
2022/01/15 03:21:26;;;;;;;4.40;0.87;;;0.70;99.90;;;;;;5040231;28;20398;-86
2022/01/15 03:23:53;;;;;;;8.20;1.20;;;0.70;99.90;;;;;;5056757;28;20455;-85
2022/01/15 03:26:21;;;;;;;6.70;0.90;;;0.60;99.90;;;;;;5040040;28;20915;-85
2022/01/15 03:28:48;;;;;;;4.43;0.70;;;0.70;99.90;;;;;;5056602;28;20473;-86
2022/01/15 03:31:15;;;;;;;5.15;0.95;;;0.70;99.90;;;;;;5074616;28;20390;-86
2022/01/15 03:33:43;;;;;;;7.53;0.90;;;0.60;99.90;;;;;;5040032;28;20387;-86
2022/01/15 03:36:11;;;;;;;4.83;0.73;;;0.60;99.90;;;;;;5039915;28;20431;-85
2022/01/15 03:38:38;;;;;;;7.63;1.17;;;0.60;99.90;;;;;;5055972;28;20888;-86
2022/01/15 03:41:06;;;;;;;4.90;0.88;;;0.60;99.90;;;;;;5056128;28;20489;-86
2022/01/15 03:43:33;;;;;;;6.65;1.02;;;0.60;99.90;;;;;;5038605;28;20879;-86
2022/01/15 03:46:01;;;;;;;6.10;0.98;;;0.60;99.90;;;;;;5039602;28;20451;-86
2022/01/15 03:48:29;;;;;;;5.82;1.00;;;0.60;99.90;;;;;;5039821;28;20481;-87
2022/01/15 03:50:57;;;;;;;5.60;1.20;;;0.60;99.90;;;;;;5039895;28;20394;-86
2022/01/15 03:53:24;;;;;;;6.50;0.88;;;0.60;99.90;;;;;;5055969;28;20425;-86
2022/01/15 03:55:52;;;;;;;4.78;0.98;;;0.60;99.90;;;;;;5039474;28;20489;-86
2022/01/15 03:58:20;;;;;;;6.53;0.95;;;0.50;99.90;;;;;;5039504;28;20880;-86
2022/01/15 04:00:48;;;;;;;8.75;0.93;;;0.60;99.90;;;;;;5052266;28;20403;-85
2022/01/15 04:03:16;;;;;;;6.70;1.00;;;0.50;99.90;;;;;;5035904;28;20466;-87
2022/01/15 04:05:43;;;;;;;7.82;1.25;;;0.50;99.90;;;;;;5035742;28;20410;-86
2022/01/15 04:08:11;;;;;;;4.82;0.93;;;0.60;99.90;;;;;;5036364;28;20395;-86
2022/01/15 04:10:38;;;;;;;5.47;0.80;;;0.50;99.90;;;;;;5035846;28;20917;-86
2022/01/15 04:13:07;;;;;;;5.30;0.80;;;0.50;99.90;;;;;;5035906;28;20426;-87
2022/01/15 04:15:35;;;;;;;5.40;0.87;;;0.50;99.90;;;;;;5035874;28;20813;-86
2022/01/15 04:18:03;;;;;;;5.97;1.20;;;0.50;99.90;;;;;;5035854;28;20483;-86
2022/01/15 04:20:30;;;;;;;6.53;1.00;;;0.50;99.90;;;;;;5035623;28;20402;-86
2022/01/15 04:22:58;;;;;;;5.72;0.80;;;0.50;99.90;;;;;;5035751;28;20874;-85
2022/01/15 04:25:25;;;;;;;6.07;0.70;;;0.50;99.90;;;;;;5044741;28;20451;-85
2022/01/15 04:27:56;;;;;;;5.25;0.80;;;0.50;99.90;;;;;;5031185;28;20391;-85
2022/01/15 04:30:25;;;;;;;5.30;1.00;;;0.50;99.90;;;;;;5034555;28;20400;-85
2022/01/15 04:32:53;;;;;;;4.13;0.85;;;0.50;99.90;;;;;;5049684;28;20384;-86
2022/01/15 04:35:20;;;;;;;4.65;0.95;;;0.50;99.90;;;;;;5037107;28;20482;-85
2022/01/15 04:37:52;;;;;;;6.05;1.20;;;0.50;99.90;;;;;;5018282;28;20395;-86
2022/01/15 04:40:20;;;;;;;5.13;0.93;;;0.50;99.90;;;;;;5036817;28;20878;-86
2022/01/15 04:42:48;;;;;;;4.80;0.95;;;0.50;99.90;;;;;;5051331;28;20940;-85
2022/01/15 04:45:15;;;;;;;6.05;0.80;;;0.50;99.90;;;;;;5051211;28;20402;-87
2022/01/15 04:47:43;;;;;;;3.50;0.80;;;0.50;99.90;;;;;;5028316;28;20406;-86
2022/01/15 04:50:13;;;;;;;4.90;0.90;;;0.50;99.90;;;;;;5034971;28;20415;-86
2022/01/15 04:52:42;;;;;;;5.95;0.90;;;0.50;99.90;;;;;;5028525;28;20450;-86
2022/01/15 04:55:10;;;;;;;8.57;1.50;;;0.50;99.90;;;;;;5034259;28;20422;-86
2022/01/15 04:57:39;;;;;;;7.55;1.50;;;0.50;99.90;;;;;;5054151;28;20390;-86
2022/01/15 05:00:12;;;;;;;3.88;0.70;;;0.50;99.90;;;;;;5054315;28;20747;-86
2022/01/15 05:02:40;;;;;;;5.75;0.82;;;0.50;99.90;;;;;;5053809;28;20483;-86
2022/01/15 05:05:08;;;;;;;5.90;1.00;;;0.50;99.90;;;;;;5037511;28;20489;-86
2022/01/15 05:07:36;;;;;;;5.70;0.77;;;0.50;99.90;;;;;;5049901;28;20456;-86
2022/01/15 05:10:06;;;;;;;7.18;1.00;;;0.50;99.90;;;;;;5034063;28;20469;-85
2022/01/15 05:15:09;;;;;;;4.93;1.00;;;0.50;99.90;;;;;;5053564;28;20903;-85
2022/01/15 05:17:37;;;;;;;6.72;0.80;;;0.50;99.90;;;;;;5050231;28;20387;-85
2022/01/15 05:20:06;;;;;;;4.70;0.60;;;0.50;99.90;;;;;;5034190;28;20396;-86
2022/01/15 05:22:34;;;;;;;8.10;1.20;;;0.40;99.90;;;;;;5020146;28;20820;-85
2022/01/15 05:25:03;;;;;;;4.63;0.70;;;0.50;99.90;;;;;;5033616;28;20941;-85
2022/01/15 05:27:30;;;;;;;6.18;0.90;;;0.40;99.90;;;;;;5051403;28;20385;-86
2022/01/15 05:29:58;;;;;;;6.93;1.10;;;0.50;99.90;;;;;;5037203;28;20398;-85
2022/01/15 05:32:25;;;;;;;7.50;0.70;;;0.40;99.90;;;;;;5033575;28;20388;-85
2022/01/15 05:34:53;;;;;;;4.50;0.60;;;0.50;99.90;;;;;;5034582;28;20418;-85
2022/01/15 05:37:20;;;;;;;7.20;1.00;;;0.50;99.90;;;;;;5034991;28;20437;-86
2022/01/15 05:39:47;;;;;;;5.93;0.77;;;0.40;99.90;;;;;;5036947;28;20394;-86
2022/01/15 05:42:15;;;;;;;5.10;0.90;;;0.40;99.90;;;;;;5037895;28;20471;-86
2022/01/15 05:44:43;;;;;;;5.10;0.80;;;0.40;99.90;;;;;;5033978;28;20751;-86
2022/01/15 05:47:11;;;;;;;6.28;0.80;;;0.40;99.90;;;;;;5030567;28;20409;-86
2022/01/15 05:49:39;;;;;;;5.03;0.80;;;0.40;99.90;;;;;;5030926;28;20406;-86
2022/01/15 05:52:06;;;;;;;3.63;0.77;;;0.50;99.90;;;;;;5047371;28;20475;-85
2022/01/15 05:54:34;;;;;;;5.15;0.75;;;0.40;99.90;;;;;;5047066;28;20400;-85
2022/01/15 05:57:02;;;;;;;4.22;1.00;;;0.40;99.90;;;;;;5030427;28;20480;-85
2022/01/15 05:59:30;;;;;;;3.95;0.77;;;0.50;99.90;;;;;;5031055;28;20424;-85
2022/01/15 06:01:57;;;;;;;3.22;0.70;;;0.50;99.90;;;;;;5024664;28;20385;-86
2022/01/15 06:04:25;;;;;;;4.15;0.80;;;0.40;99.90;;;;;;5031474;28;20382;-87
2022/01/15 06:06:52;;;;;;;4.15;0.82;;;0.50;99.90;;;;;;5028963;28;20489;-86
2022/01/15 06:09:21;;;;;;;4.88;0.95;;;0.50;99.90;;;;;;5051483;28;20478;-85
2022/01/15 06:11:49;;;;;;;3.28;0.70;;;0.50;99.90;;;;;;5034024;28;20390;-85
2022/01/15 06:14:16;;;;;;;4.60;0.83;;;0.50;99.90;;;;;;5050562;28;20393;-85
2022/01/15 06:16:44;;;;;;;4.88;1.10;;;0.50;99.90;;;;;;5031443;28;20404;-86
2022/01/15 06:19:11;;;;;;;5.20;0.80;;;0.50;99.90;;;;;;5034187;28;20389;-84
2022/01/15 06:21:39;;;;;;;5.78;0.90;;;0.50;99.90;;;;;;5042754;28;20483;-87
2022/01/15 06:24:07;;;;;;;4.47;0.80;;;0.50;99.90;;;;;;5018153;28;20451;-86
2022/01/15 06:26:34;;;;;;;3.78;0.60;;;0.50;99.90;;;;;;5018252;28;20791;-86
2022/01/15 06:29:02;;;;;;;3.58;0.73;;;0.40;99.90;;;;;;5034341;28;20428;-86
2022/01/15 06:31:31;;;;;;;5.22;0.47;;;0.40;99.90;;;;;;5037560;28;20947;-86
2022/01/15 06:33:59;;;;;;;3.85;0.90;;;0.40;99.90;;;;;;5046413;28;20401;-89
2022/01/15 06:36:27;;;;;;;2.58;0.60;;;0.40;99.90;;;;;;5034118;28;20408;-86
2022/01/15 06:38:55;;;;;;;4.88;0.60;;;0.40;99.90;;;;;;5035460;28;20396;-86
2022/01/15 06:41:24;;;;;;;5.32;0.65;;;0.30;99.90;;;;;;5040370;28;20857;-87
2022/01/15 06:43:51;;;;;;;4.53;0.88;;;0.30;99.90;;;;;;5053502;28;20427;-86
2022/01/15 06:46:19;;;;;;;5.15;0.82;;;0.40;99.90;;;;;;5053268;28;20408;-86
2022/01/15 06:48:47;;;;;;;4.43;0.63;;;0.30;99.90;;;;;;5053404;28;20400;-86
2022/01/15 06:51:14;;;;;;;6.27;0.90;;;0.30;99.90;;;;;;5036374;28;20431;-86
2022/01/15 06:53:42;;;;;;;3.72;0.65;;;0.40;99.90;;;;;;5050164;28;20428;-85
2022/01/15 06:56:09;;;;;;;3.90;0.60;;;0.30;99.90;;;;;;5050122;28;20387;-85
2022/01/15 06:58:37;;;;;;;3.53;0.50;;;0.30;99.90;;;;;;5048385;28;20461;-86
2022/01/15 07:01:05;;;;;;;2.47;0.52;;;0.30;99.90;;;;;;5036690;28;20767;-86
2022/01/15 07:03:33;;;;;;;4.63;0.75;;;0.30;99.90;;;;;;5029773;28;20410;-86
2022/01/15 07:06:00;;;;;;;3.58;0.60;;;0.30;99.90;;;;;;5065754;28;20408;-86
2022/01/15 07:08:27;;;;;;;4.78;0.77;;;0.30;99.90;;;;;;5049605;28;20385;-86
2022/01/15 07:10:55;;;;;;;6.25;0.77;;;0.30;99.90;;;;;;5033417;28;20429;-86
2022/01/15 07:13:22;;;;;;;4.72;0.75;;;0.30;99.90;;;;;;5050270;28;20417;-86
2022/01/15 07:15:50;;;;;;;3.30;0.80;;;0.30;99.90;;;;;;5033673;28;20898;-86
2022/01/15 07:18:17;;;;;;;4.80;1.00;;;0.30;99.90;;;;;;5034846;28;20488;-86
2022/01/15 07:20:45;;;;;;;5.55;0.93;;;0.30;99.90;;;;;;5034155;28;20422;-86
2022/01/15 07:23:12;;;;;;;4.53;0.80;;;0.30;99.90;;;;;;5046250;28;20402;-86
2022/01/15 07:25:40;;;;;;;2.80;0.80;;;0.30;99.90;;;;;;5017174;28;20414;-86
2022/01/15 07:28:07;;;;;;;6.50;1.08;;;0.30;99.90;;;;;;5044257;28;20396;-85
2022/01/15 07:30:35;;;;;;;6.55;1.48;;;0.30;99.90;;;;;;5043356;28;20395;-86
2022/01/15 07:33:03;;;;;;;4.32;0.70;;;0.40;99.90;;;;;;5033183;28;20968;-85
2022/01/15 07:35:31;;;;;;;4.40;0.70;;;0.40;99.90;;;;;;5030761;28;20430;-85
2022/01/15 07:37:59;;;;;;;4.07;0.90;;;0.40;99.90;;;;;;5046981;28;20471;-85
2022/01/15 07:40:31;;;;;;;4.10;0.50;;;0.40;99.90;;;;;;5040497;28;20692;-85
2022/01/15 07:42:58;;;;;;;5.32;0.73;;;0.50;99.90;;;;;;5047296;28;20409;-86
2022/01/15 07:45:26;;;;;;;3.40;0.60;;;0.40;99.90;;;;;;5040226;28;20923;-86
2022/01/15 07:47:53;;;;;;;4.43;0.73;;;0.40;99.90;;;;;;5032154;28;20393;-86
2022/01/15 07:50:24;;;;;;;5.45;0.93;;;0.40;99.90;;;;;;5050380;28;20442;-86
2022/01/15 07:52:56;;;;;;;3.60;0.70;;;0.40;99.90;;;;;;5028127;28;20412;-85
2022/01/15 07:55:25;;;;;;;5.82;0.90;;;0.40;99.90;;;;;;5029129;28;20817;-86
2022/01/15 07:58:03;;;;;;;4.72;0.70;;;0.40;99.90;;;;;;5045975;28;20412;-86
2022/01/15 08:00:31;;;;;;;4.40;0.80;;;0.40;99.90;;;;;;5032768;28;20393;-86
2022/01/15 08:02:59;;;;;;;5.07;0.80;;;0.50;99.90;;;;;;5040404;28;20480;-86
2022/01/15 08:05:27;;;;;;;5.20;0.90;;;0.50;99.90;;;;;;5032085;28;20401;-85
2022/01/15 08:07:54;;;;;;;5.05;0.88;;;0.50;99.90;;;;;;5052085;28;20414;-86
2022/01/15 08:10:22;;;;;;;4.90;0.80;;;0.50;99.90;;;;;;5048984;28;20428;-86
2022/01/15 08:12:51;;;;;;;3.53;0.70;;;0.50;99.90;;;;;;5032208;28;20894;-86
2022/01/15 08:15:20;;;;;;;4.28;0.80;;;0.50;99.90;;;;;;5042004;28;20397;-86
2022/01/15 08:17:48;;;;;;;5.05;1.15;;;0.50;99.90;;;;;;5039990;28;20404;-85
2022/01/15 08:20:16;;;;;;;6.43;0.93;;;0.50;99.90;;;;;;5032166;28;20472;-86
2022/01/15 08:22:45;;;;;;;3.53;0.80;;;0.50;99.90;;;;;;5018694;28;20807;-86
2022/01/15 08:25:16;;;;;;;5.13;0.90;;;0.60;99.90;;;;;;5045591;28;20401;-85
2022/01/15 08:27:47;;;;;;;5.43;0.85;;;0.60;99.90;;;;;;5034233;28;20393;-88
2022/01/15 08:30:16;;;;;;;2.97;0.90;;;0.60;99.90;;;;;;5030149;28;20436;-87
2022/01/15 08:32:44;;;;;;;2.92;0.80;;;0.60;99.90;;;;;;5051374;28;20479;-88
2022/01/15 08:35:12;;;;;;;6.05;1.27;;;0.50;99.90;;;;;;5044508;28;20385;-88
2022/01/15 08:37:40;;;;;;;4.68;0.80;;;0.50;99.90;;;;;;5032128;28;20736;-88
2022/01/15 08:40:10;;;;;;;8.15;1.33;;;0.60;99.90;;;;;;5031402;28;20767;-86
2022/01/15 08:42:38;;;;;;;5.38;0.80;;;0.60;99.90;;;;;;5034850;28;20391;-87
2022/01/15 08:45:08;;;;;;;3.40;0.60;;;0.50;99.90;;;;;;5051354;28;20426;-88
2022/01/15 08:47:36;;;;;;;4.10;0.70;;;0.50;99.90;;;;;;5050657;28;20502;-87
2022/01/15 08:50:05;;;;;;;5.05;0.82;;;0.60;99.90;;;;;;5034557;28;20399;-86
2022/01/15 08:52:33;;;;;;;3.00;0.70;;;0.60;99.90;;;;;;5034684;28;20482;-88
2022/01/15 08:55:02;;;;;;;3.60;0.75;;;0.60;99.90;;;;;;5051731;28;20407;-88
2022/01/15 08:57:30;;;;;;;5.63;0.80;;;0.60;99.90;;;;;;5031198;28;20863;-88
2022/01/15 08:59:58;;;;;;;3.07;0.73;;;0.60;99.90;;;;;;5031114;28;20417;-88
2022/01/15 09:02:26;;;;;;;4.90;0.70;;;0.50;99.90;;;;;;5030964;28;20768;-87
2022/01/15 09:04:54;;;;;;;3.20;0.75;;;0.50;99.90;;;;;;5047418;28;20389;-88
2022/01/15 09:07:22;;;;;;;2.63;0.77;;;0.60;99.90;;;;;;5031398;28;20414;-88
2022/01/15 09:09:50;;;;;;;6.65;1.02;;;0.60;99.90;;;;;;5034713;28;20778;-89
2022/01/15 09:12:20;;;;;;;6.05;0.80;;;0.60;99.90;;;;;;5050932;28;20384;-90
2022/01/15 09:14:52;;;;;;;6.93;1.00;;;0.50;99.90;;;;;;5047704;28;20477;-88
2022/01/15 09:17:20;;;;;;;5.00;0.77;;;0.50;99.90;;;;;;5031217;28;20745;-88
2022/01/15 09:19:47;;;;;;;6.43;0.90;;;0.50;99.90;;;;;;5031132;28;20394;-86
2022/01/15 09:22:15;;;;;;;3.90;0.80;;;0.50;99.90;;;;;;5047440;28;20638;-88
2022/01/15 09:24:45;;;;;;;4.95;0.77;;;0.50;99.90;;;;;;5030763;28;20934;-87
2022/01/15 09:30:13;;;;;;;4.40;0.80;;;0.50;99.90;;;;;;5043283;28;20399;-88
2022/01/15 09:32:44;;;;;;;6.80;0.97;;;0.50;99.90;;;;;;5050596;28;20399;-87
2022/01/15 09:35:14;;;;;;;6.47;0.98;;;0.50;99.90;;;;;;5030871;28;20398;-87
2022/01/15 09:37:42;;;;;;;5.43;0.95;;;0.60;99.90;;;;;;5035041;28;20396;-87
2022/01/15 09:40:11;;;;;;;5.10;0.90;;;0.60;99.90;;;;;;5049829;28;20437;-87
2022/01/15 09:42:40;;;;;;;8.75;1.00;;;0.60;99.90;;;;;;5050911;28;20467;-88
2022/01/15 09:45:09;;;;;;;5.10;0.80;;;0.60;99.90;;;;;;5030589;28;20500;-87
2022/01/15 09:47:37;;;;;;;4.73;1.00;;;0.70;99.90;;;;;;5036923;28;20486;-87
2022/01/15 09:50:08;;;;;;;5.77;1.20;;;0.60;99.90;;;;;;5034200;28;20395;-88
2022/01/15 09:52:37;;;;;;;3.80;0.77;;;0.60;99.90;;;;;;5034120;28;20391;-87
2022/01/15 09:55:10;;;;;;;5.72;0.80;;;0.60;99.90;;;;;;5048086;28;20892;-87
2022/01/15 09:57:39;;;;;;;9.02;1.27;;;0.70;99.90;;;;;;5053451;28;20387;-87
2022/01/15 10:00:14;;;;;;;3.80;0.90;;;0.70;99.90;;;;;;5053455;28;20390;-88
2022/01/15 10:02:44;;;;;;;7.32;1.20;;;0.80;99.90;;;;;;5051110;28;20392;-88
2022/01/15 10:05:13;;;;;;;3.40;0.90;;;0.70;99.90;;;;;;5055400;28;20393;-88
2022/01/15 10:08:01;;;;;;;7.38;1.00;;;0.70;99.90;;;;;;5049994;28;20411;-87
2022/01/15 10:10:32;;;;;;;3.65;0.93;;;0.70;99.90;;;;;;5022586;28;20750;-87
2022/01/15 10:13:24;;;;;;;4.75;1.05;;;0.70;99.90;;;;;;5049826;28;20421;-88
2022/01/15 10:15:58;;;;;;;3.05;0.85;;;0.70;99.90;;;;;;5017444;28;20416;-88
2022/01/15 10:18:30;;;;;;;4.50;0.80;;;0.80;99.90;;;;;;5049867;28;20449;-87
2022/01/15 10:21:10;;;;;;;6.27;1.00;;;0.80;99.90;;;;;;5033589;28;20904;-87
2022/01/15 10:23:50;;;;;;;6.35;0.80;;;0.90;99.90;;;;;;5050839;28;20752;-86
2022/01/15 10:26:20;;;;;;;5.03;1.00;;;0.90;99.90;;;;;;5070698;28;20875;-86
2022/01/15 10:28:54;;;;;;;3.85;0.90;;;1.00;99.90;;;;;;5053386;28;20412;-88
2022/01/15 10:31:38;;;;;;;4.82;0.95;;;1.00;99.90;;;;;;5049962;28;20797;-87
2022/01/15 10:34:27;;;;;;;5.53;0.90;;;1.10;99.90;;;;;;5049548;28;20395;-86
2022/01/15 10:37:06;;;;;;;3.75;0.90;;;1.20;99.90;;;;;;5033342;28;20392;-86
2022/01/15 10:39:34;;;;;;;5.18;0.98;;;1.20;99.90;;;;;;5049488;28;20392;-87
2022/01/15 10:42:15;;;;;;;5.47;1.08;;;1.30;99.90;;;;;;5017174;28;20396;-87
2022/01/15 10:44:45;;;;;;;6.82;1.02;;;1.30;99.90;;;;;;5033312;28;20392;-88
2022/01/15 10:47:15;;;;;;;4.93;0.77;;;1.30;99.90;;;;;;5036854;28;20561;-86
2022/01/15 10:49:44;;;;;;;5.43;1.08;;;1.30;99.90;;;;;;5070591;28;20449;-88
2022/01/15 10:52:23;;;;;;;5.15;1.05;;;1.40;99.90;;;;;;5055046;28;20898;-87
2022/01/15 10:54:51;;;;;;;5.60;0.85;;;1.40;99.90;;;;;;5056805;28;20406;-89
2022/01/15 10:57:22;;;;;;;6.40;1.00;;;1.40;99.90;;;;;;5040539;28;20421;-88
2022/01/15 11:00:03;;;;;;;3.10;0.85;;;1.40;99.90;;;;;;5037038;28;20396;-88
2022/01/15 11:02:31;;;;;;;4.03;0.90;;;1.40;99.90;;;;;;5037280;28;20402;-87
2022/01/15 11:04:59;;;;;;;4.43;0.80;;;1.40;99.90;;;;;;5050800;28;20394;-88
2022/01/15 11:07:28;;;;;;;5.22;0.90;;;1.50;99.90;;;;;;5056544;28;20495;-88
2022/01/15 11:09:55;;;;;;;7.28;1.48;;;1.50;99.90;;;;;;5036851;28;20392;-89
2022/01/15 11:12:29;;;;;;;4.32;0.82;;;1.60;99.90;;;;;;5036612;28;20455;-87
2022/01/15 11:14:58;;;;;;;6.80;1.00;;;1.60;99.90;;;;;;5056680;28;20393;-89
2022/01/15 11:17:30;;;;;;;4.90;0.90;;;1.70;99.90;;;;;;5038052;28;20387;-89
2022/01/15 11:19:58;;;;;;;4.80;0.90;;;1.50;99.90;;;;;;5054405;28;20735;-89
2022/01/15 11:22:26;;;;;;;5.50;0.90;;;1.60;99.90;;;;;;5054500;28;20396;-86
2022/01/15 11:24:55;;;;;;;3.70;0.82;;;1.70;99.90;;;;;;5029781;28;20395;-88
2022/01/15 11:27:28;;;;;;;4.30;0.90;;;1.90;99.90;;;;;;5056629;28;20410;-87
2022/01/15 11:29:58;;;;;;;7.07;0.90;;;1.80;99.90;;;;;;5056129;28;20394;-89
2022/01/15 11:32:27;;;;;;;4.22;0.90;;;1.70;99.90;;;;;;5055850;28;20425;-88
2022/01/15 11:35:04;;;;;;;4.25;0.90;;;1.90;99.90;;;;;;5062367;28;20490;-88
2022/01/15 11:37:47;;;;;;;4.55;0.80;;;2.00;99.90;;;;;;5036643;28;20735;-89
2022/01/15 11:40:46;;;;;;;5.00;0.88;;;2.00;99.90;;;;;;5043591;28;20433;-89
2022/01/15 11:43:26;;;;;;;4.30;0.93;;;1.90;99.90;;;;;;5036516;28;20415;-90
2022/01/15 11:46:01;;;;;;;5.40;0.77;;;2.00;99.90;;;;;;5052729;28;20400;-89
2022/01/15 11:48:35;;;;;;;5.32;0.95;;;2.00;99.90;;;;;;5033137;28;20404;-89
2022/01/15 11:51:15;;;;;;;4.55;1.00;;;1.90;99.90;;;;;;5052642;28;20423;-89
2022/01/15 11:53:58;;;;;;;5.88;1.38;;;2.00;99.90;;;;;;5054264;28;20400;-88
2022/01/15 11:56:39;;;;;;;4.03;0.70;;;2.10;99.90;;;;;;5039080;28;20489;-89
2022/01/15 11:59:25;;;;;;;4.43;1.15;;;2.20;99.90;;;;;;5055435;28;20477;-88
2022/01/15 12:01:54;;;;;;;4.65;1.10;;;2.20;99.90;;;;;;5037259;28;20467;-87
2022/01/15 12:04:32;;;;;;;5.22;0.90;;;2.30;99.90;;;;;;5054496;28;20471;-87
2022/01/15 12:07:06;;;;;;;6.25;1.17;;;2.20;99.90;;;;;;5055351;28;20969;-89
2022/01/15 12:09:52;;;;;;;5.35;0.98;;;2.30;99.90;;;;;;5073022;28;20386;-89
2022/01/15 12:12:20;;;;;;;5.93;0.90;;;2.40;99.90;;;;;;5073180;28;20477;-90
2022/01/15 12:14:51;;;;;;;5.03;0.90;;;2.40;99.90;;;;;;5055465;28;20444;-88
2022/01/15 12:17:30;;;;;;;5.25;1.05;;;2.40;99.90;;;;;;5055811;28;20430;-89
2022/01/15 12:20:07;;;;;;;3.60;0.90;;;2.30;99.90;;;;;;5055593;28;20394;-87
2022/01/15 12:22:41;;;;;;;7.07;1.33;;;2.30;99.90;;;;;;5055821;28;20408;-88
2022/01/15 12:25:12;;;;;;;3.08;0.70;;;2.20;99.90;;;;;;5055389;28;20393;-89
2022/01/15 12:27:41;;;;;;;4.95;0.90;;;2.10;99.90;;;;;;5037986;28;20415;-88
2022/01/15 12:30:18;;;;;;;5.60;0.95;;;2.20;99.90;;;;;;5030201;28;20408;-87
2022/01/15 12:32:51;;;;;;;6.88;0.95;;;2.30;99.90;;;;;;5029175;28;20970;-87
2022/01/15 12:35:23;;;;;;;2.70;0.80;;;2.30;99.90;;;;;;5055134;28;20401;-88
2022/01/15 12:37:56;;;;;;;5.38;1.00;;;2.40;99.90;;;;;;5055194;28;20536;-88
2022/01/15 12:40:50;;;;;;;9.30;1.00;;;2.30;99.90;;;;;;5055303;28;20836;-88
2022/01/15 12:43:28;;;;;;;5.05;1.00;;;2.20;99.90;;;;;;5054734;28;20946;-87
2022/01/15 12:46:20;;;;;;;5.78;1.00;;;2.10;99.90;;;;;;5054792;28;20969;-88
2022/01/15 12:48:49;;;;;;;3.90;0.90;;;2.20;99.90;;;;;;5054790;28;20398;-88
2022/01/15 12:51:22;;;;;;;7.00;1.00;;;2.20;99.90;;;;;;5051845;28;20409;-88
2022/01/15 12:53:57;;;;;;;4.10;1.10;;;2.30;99.90;;;;;;5018449;28;20491;-88
2022/01/15 12:56:27;;;;;;;5.20;0.90;;;2.30;99.90;;;;;;5027394;28;20407;-88
2022/01/15 12:58:55;;;;;;;6.57;1.30;;;2.30;99.90;;;;;;5037650;28;20479;-87
2022/01/15 13:01:28;;;;;;;4.18;1.40;;;2.10;99.90;;;;;;5072510;28;20455;-87
2022/01/15 13:03:55;;;;;;;5.85;1.10;;;2.10;99.90;;;;;;5054703;28;20386;-87
2022/01/15 13:06:26;;;;;;;6.07;1.00;;;1.90;99.90;;;;;;5038718;28;20471;-87
2022/01/15 13:08:58;;;;;;;3.50;0.90;;;1.80;99.90;;;;;;5054672;28;20452;-87
2022/01/15 13:11:28;;;;;;;5.03;1.10;;;1.70;99.90;;;;;;5031740;28;20560;-86
2022/01/15 13:14:04;;;;;;;5.60;1.10;;;1.70;99.90;;;;;;5025948;28;20407;-86
2022/01/15 13:16:33;;;;;;;3.88;0.90;;;1.70;99.90;;;;;;5044415;28;20807;-87
2022/01/15 13:19:05;;;;;;;5.20;1.05;;;1.60;99.90;;;;;;5034852;28;20588;-86
2022/01/15 13:21:40;;;;;;;5.43;0.93;;;1.50;99.90;;;;;;5034625;28;20384;-88
2022/01/15 13:24:11;;;;;;;5.57;0.88;;;1.40;99.90;;;;;;5053353;28;20790;-87
2022/01/15 13:26:47;;;;;;;4.93;1.02;;;1.30;99.90;;;;;;5072058;28;20382;-88
2022/01/15 13:29:19;;;;;;;5.20;0.85;;;1.30;99.90;;;;;;5054955;28;20382;-87
2022/01/15 13:31:49;;;;;;;7.63;1.00;;;1.10;99.90;;;;;;5054184;28;21062;-87
2022/01/15 13:34:28;;;;;;;7.25;1.08;;;1.10;99.90;;;;;;5054602;28;20401;-86
2022/01/15 13:37:09;;;;;;;5.07;0.90;;;1.00;99.90;;;;;;5034608;28;20418;-87